sensor_id;sensor_type;location;lat;lon;timestamp;temperature;humidity
21906;DHT22;11117;48.644;9.006;2024-02-15T00:01:45;10.20;99.90
21906;DHT22;11117;48.644;9.006;2024-02-15T00:04:11;10.30;99.90
21906;DHT22;11117;48.644;9.006;2024-02-15T00:06:36;10.20;99.90
21906;DHT22;11117;48.644;9.006;2024-02-15T00:09:02;10.20;99.90
21906;DHT22;11117;48.644;9.006;2024-02-15T00:11:28;10.30;99.90
21906;DHT22;11117;48.644;9.006;2024-02-15T00:13:53;10.30;99.90
21906;DHT22;11117;48.644;9.006;2024-02-15T00:16:19;10.30;99.90
21906;DHT22;11117;48.644;9.006;2024-02-15T00:18:44;10.30;99.90
21906;DHT22;11117;48.644;9.006;2024-02-15T00:21:10;10.40;99.90
21906;DHT22;11117;48.644;9.006;2024-02-15T00:23:35;10.50;99.90
21906;DHT22;11117;48.644;9.006;2024-02-15T00:26:04;10.40;99.90
21906;DHT22;11117;48.644;9.006;2024-02-15T00:28:29;10.50;99.90
21906;DHT22;11117;48.644;9.006;2024-02-15T00:30:55;10.50;99.90
21906;DHT22;11117;48.644;9.006;2024-02-15T00:33:20;10.50;99.90
21906;DHT22;11117;48.644;9.006;2024-02-15T00:35:46;10.50;99.90
21906;DHT22;11117;48.644;9.006;2024-02-15T00:38:11;10.50;99.90
21906;DHT22;11117;48.644;9.006;2024-02-15T00:40:37;10.50;99.90
21906;DHT22;11117;48.644;9.006;2024-02-15T00:43:03;10.50;99.90
21906;DHT22;11117;48.644;9.006;2024-02-15T00:45:28;10.60;99.90
21906;DHT22;11117;48.644;9.006;2024-02-15T00:47:54;10.60;99.90
21906;DHT22;11117;48.644;9.006;2024-02-15T00:50:19;10.60;99.90
21906;DHT22;11117;48.644;9.006;2024-02-15T00:52:45;10.60;99.90
21906;DHT22;11117;48.644;9.006;2024-02-15T00:55:10;10.60;99.90
21906;DHT22;11117;48.644;9.006;2024-02-15T00:57:36;10.70;99.90
21906;DHT22;11117;48.644;9.006;2024-02-15T01:00:02;10.70;99.90
21906;DHT22;11117;48.644;9.006;2024-02-15T01:02:28;10.70;99.90
21906;DHT22;11117;48.644;9.006;2024-02-15T01:04:53;10.70;99.90
21906;DHT22;11117;48.644;9.006;2024-02-15T01:07:19;10.70;99.90
21906;DHT22;11117;48.644;9.006;2024-02-15T01:09:45;10.70;99.90
21906;DHT22;11117;48.644;9.006;2024-02-15T01:12:10;10.70;99.90
21906;DHT22;11117;48.644;9.006;2024-02-15T01:14:36;10.70;99.90
21906;DHT22;11117;48.644;9.006;2024-02-15T01:17:02;10.60;99.90
21906;DHT22;11117;48.644;9.006;2024-02-15T01:19:27;10.60;99.90
21906;DHT22;11117;48.644;9.006;2024-02-15T01:21:53;10.50;99.90
21906;DHT22;11117;48.644;9.006;2024-02-15T01:24:18;10.50;99.90
21906;DHT22;11117;48.644;9.006;2024-02-15T01:26:44;10.50;99.90
21906;DHT22;11117;48.644;9.006;2024-02-15T01:29:10;10.50;99.90
21906;DHT22;11117;48.644;9.006;2024-02-15T01:31:35;10.50;99.90
21906;DHT22;11117;48.644;9.006;2024-02-15T01:34:01;10.30;99.90
21906;DHT22;11117;48.644;9.006;2024-02-15T01:36:26;10.10;99.90
21906;DHT22;11117;48.644;9.006;2024-02-15T01:38:52;9.90;99.90
21906;DHT22;11117;48.644;9.006;2024-02-15T01:41:17;9.70;99.90
21906;DHT22;11117;48.644;9.006;2024-02-15T01:43:43;9.60;99.90
21906;DHT22;11117;48.644;9.006;2024-02-15T01:46:09;9.60;99.90
21906;DHT22;11117;48.644;9.006;2024-02-15T01:48:40;9.50;99.90
21906;DHT22;11117;48.644;9.006;2024-02-15T01:51:07;9.50;99.90
21906;DHT22;11117;48.644;9.006;2024-02-15T01:53:33;9.50;99.90
21906;DHT22;11117;48.644;9.006;2024-02-15T01:56:02;9.40;99.90
21906;DHT22;11117;48.644;9.006;2024-02-15T01:58:29;9.20;99.90
21906;DHT22;11117;48.644;9.006;2024-02-15T02:00:56;9.10;99.90
21906;DHT22;11117;48.644;9.006;2024-02-15T02:03:22;9.10;99.90
21906;DHT22;11117;48.644;9.006;2024-02-15T02:05:47;8.90;99.90
21906;DHT22;11117;48.644;9.006;2024-02-15T02:08:13;8.80;99.90
21906;DHT22;11117;48.644;9.006;2024-02-15T02:10:39;8.80;99.90
21906;DHT22;11117;48.644;9.006;2024-02-15T02:13:05;8.90;99.90
21906;DHT22;11117;48.644;9.006;2024-02-15T02:15:32;8.90;99.90
21906;DHT22;11117;48.644;9.006;2024-02-15T02:18:01;8.90;99.90
21906;DHT22;11117;48.644;9.006;2024-02-15T02:20:27;8.80;99.90
21906;DHT22;11117;48.644;9.006;2024-02-15T02:22:53;8.60;99.90
21906;DHT22;11117;48.644;9.006;2024-02-15T02:25:19;8.40;99.90
21906;DHT22;11117;48.644;9.006;2024-02-15T02:27:47;8.30;99.90
21906;DHT22;11117;48.644;9.006;2024-02-15T02:30:14;8.20;99.90
21906;DHT22;11117;48.644;9.006;2024-02-15T02:32:40;8.10;99.90
21906;DHT22;11117;48.644;9.006;2024-02-15T02:35:06;8.10;99.90
21906;DHT22;11117;48.644;9.006;2024-02-15T02:37:31;8.00;99.90
21906;DHT22;11117;48.644;9.006;2024-02-15T02:39:57;8.10;99.90
21906;DHT22;11117;48.644;9.006;2024-02-15T02:42:23;8.00;99.90
21906;DHT22;11117;48.644;9.006;2024-02-15T02:44:48;8.00;99.90
21906;DHT22;11117;48.644;9.006;2024-02-15T02:47:14;8.10;99.90
21906;DHT22;11117;48.644;9.006;2024-02-15T02:49:39;8.10;99.90
21906;DHT22;11117;48.644;9.006;2024-02-15T02:52:05;8.10;99.90
21906;DHT22;11117;48.644;9.006;2024-02-15T02:54:31;8.00;99.90
21906;DHT22;11117;48.644;9.006;2024-02-15T02:56:56;7.90;99.90
21906;DHT22;11117;48.644;9.006;2024-02-15T02:59:22;7.80;99.90
21906;DHT22;11117;48.644;9.006;2024-02-15T03:01:48;7.70;99.90
21906;DHT22;11117;48.644;9.006;2024-02-15T03:04:16;7.70;99.90
21906;DHT22;11117;48.644;9.006;2024-02-15T03:06:42;7.70;99.90
21906;DHT22;11117;48.644;9.006;2024-02-15T03:09:08;7.80;99.90
21906;DHT22;11117;48.644;9.006;2024-02-15T03:11:33;7.80;99.90
21906;DHT22;11117;48.644;9.006;2024-02-15T03:13:59;7.80;99.90
21906;DHT22;11117;48.644;9.006;2024-02-15T03:16:24;7.70;99.90
21906;DHT22;11117;48.644;9.006;2024-02-15T03:18:51;7.60;99.90
21906;DHT22;11117;48.644;9.006;2024-02-15T03:21:16;7.50;99.90
21906;DHT22;11117;48.644;9.006;2024-02-15T03:23:42;7.50;99.90
21906;DHT22;11117;48.644;9.006;2024-02-15T03:26:08;7.50;99.90
21906;DHT22;11117;48.644;9.006;2024-02-15T03:28:34;7.40;99.90
21906;DHT22;11117;48.644;9.006;2024-02-15T03:31:02;7.40;99.90
21906;DHT22;11117;48.644;9.006;2024-02-15T03:33:28;7.30;99.90
21906;DHT22;11117;48.644;9.006;2024-02-15T03:35:53;7.30;99.90
21906;DHT22;11117;48.644;9.006;2024-02-15T03:38:19;7.30;99.90
21906;DHT22;11117;48.644;9.006;2024-02-15T03:40:45;7.20;99.90
21906;DHT22;11117;48.644;9.006;2024-02-15T03:43:10;7.20;99.90
21906;DHT22;11117;48.644;9.006;2024-02-15T03:45:36;7.10;99.90
21906;DHT22;11117;48.644;9.006;2024-02-15T03:48:01;7.10;99.90
21906;DHT22;11117;48.644;9.006;2024-02-15T03:50:27;7.10;99.90
21906;DHT22;11117;48.644;9.006;2024-02-15T03:52:52;7.10;99.90
21906;DHT22;11117;48.644;9.006;2024-02-15T03:55:18;7.10;99.90
21906;DHT22;11117;48.644;9.006;2024-02-15T03:57:44;7.10;99.90
21906;DHT22;11117;48.644;9.006;2024-02-15T04:00:10;7.00;99.90
21906;DHT22;11117;48.644;9.006;2024-02-15T04:02:35;7.00;99.90
21906;DHT22;11117;48.644;9.006;2024-02-15T04:05:01;7.00;99.90
21906;DHT22;11117;48.644;9.006;2024-02-15T04:07:27;7.00;99.90
21906;DHT22;11117;48.644;9.006;2024-02-15T04:09:55;7.00;99.90
21906;DHT22;11117;48.644;9.006;2024-02-15T04:12:21;7.00;99.90
21906;DHT22;11117;48.644;9.006;2024-02-15T04:14:47;7.10;99.90
21906;DHT22;11117;48.644;9.006;2024-02-15T04:17:13;7.10;99.90
21906;DHT22;11117;48.644;9.006;2024-02-15T04:19:39;7.20;99.90
21906;DHT22;11117;48.644;9.006;2024-02-15T04:22:04;7.30;99.90
21906;DHT22;11117;48.644;9.006;2024-02-15T04:24:30;7.30;99.90
21906;DHT22;11117;48.644;9.006;2024-02-15T04:26:56;7.40;99.90
21906;DHT22;11117;48.644;9.006;2024-02-15T04:29:21;7.50;99.90
21906;DHT22;11117;48.644;9.006;2024-02-15T04:31:47;7.50;99.90
21906;DHT22;11117;48.644;9.006;2024-02-15T04:34:13;7.50;99.90
21906;DHT22;11117;48.644;9.006;2024-02-15T04:36:39;7.60;99.90
21906;DHT22;11117;48.644;9.006;2024-02-15T04:39:04;7.50;99.90
21906;DHT22;11117;48.644;9.006;2024-02-15T04:41:30;7.50;99.90
21906;DHT22;11117;48.644;9.006;2024-02-15T04:43:55;7.50;99.90
21906;DHT22;11117;48.644;9.006;2024-02-15T04:46:22;7.60;99.90
21906;DHT22;11117;48.644;9.006;2024-02-15T04:48:48;7.60;99.90
21906;DHT22;11117;48.644;9.006;2024-02-15T04:51:14;7.50;99.90
21906;DHT22;11117;48.644;9.006;2024-02-15T04:53:39;7.60;99.90
21906;DHT22;11117;48.644;9.006;2024-02-15T04:56:05;7.50;99.90
21906;DHT22;11117;48.644;9.006;2024-02-15T04:58:31;7.50;99.90
21906;DHT22;11117;48.644;9.006;2024-02-15T05:01:02;7.50;99.90
21906;DHT22;11117;48.644;9.006;2024-02-15T05:03:27;7.50;99.90
21906;DHT22;11117;48.644;9.006;2024-02-15T05:05:53;7.50;99.90
21906;DHT22;11117;48.644;9.006;2024-02-15T05:08:18;7.40;99.90
21906;DHT22;11117;48.644;9.006;2024-02-15T05:10:44;7.40;99.90
21906;DHT22;11117;48.644;9.006;2024-02-15T05:13:10;7.40;99.90
21906;DHT22;11117;48.644;9.006;2024-02-15T05:15:35;7.50;99.90
21906;DHT22;11117;48.644;9.006;2024-02-15T05:18:01;7.50;99.90
21906;DHT22;11117;48.644;9.006;2024-02-15T05:20:26;7.50;99.90
21906;DHT22;11117;48.644;9.006;2024-02-15T05:22:52;7.50;99.90
21906;DHT22;11117;48.644;9.006;2024-02-15T05:25:21;7.50;99.90
21906;DHT22;11117;48.644;9.006;2024-02-15T05:27:47;7.40;99.90
21906;DHT22;11117;48.644;9.006;2024-02-15T05:30:12;7.30;99.90
21906;DHT22;11117;48.644;9.006;2024-02-15T05:32:38;7.30;99.90
21906;DHT22;11117;48.644;9.006;2024-02-15T05:35:04;7.30;99.90
21906;DHT22;11117;48.644;9.006;2024-02-15T05:37:30;7.30;99.90
21906;DHT22;11117;48.644;9.006;2024-02-15T05:39:55;7.30;99.90
21906;DHT22;11117;48.644;9.006;2024-02-15T05:42:21;7.30;99.90
21906;DHT22;11117;48.644;9.006;2024-02-15T05:44:46;7.10;99.90
21906;DHT22;11117;48.644;9.006;2024-02-15T05:47:12;7.20;99.90
21906;DHT22;11117;48.644;9.006;2024-02-15T05:49:37;7.20;99.90
21906;DHT22;11117;48.644;9.006;2024-02-15T05:52:03;7.20;99.90
21906;DHT22;11117;48.644;9.006;2024-02-15T05:54:29;7.10;99.90
21906;DHT22;11117;48.644;9.006;2024-02-15T05:56:54;7.20;99.90
21906;DHT22;11117;48.644;9.006;2024-02-15T05:59:20;7.20;99.90
21906;DHT22;11117;48.644;9.006;2024-02-15T06:01:46;7.20;99.90
21906;DHT22;11117;48.644;9.006;2024-02-15T06:04:12;7.20;99.90
21906;DHT22;11117;48.644;9.006;2024-02-15T06:06:37;7.20;99.90
21906;DHT22;11117;48.644;9.006;2024-02-15T06:09:03;7.20;99.90
21906;DHT22;11117;48.644;9.006;2024-02-15T06:11:29;7.20;99.90
21906;DHT22;11117;48.644;9.006;2024-02-15T06:13:55;7.20;99.90
21906;DHT22;11117;48.644;9.006;2024-02-15T06:16:21;7.20;99.90
21906;DHT22;11117;48.644;9.006;2024-02-15T06:18:46;7.10;99.90
21906;DHT22;11117;48.644;9.006;2024-02-15T06:21:12;7.20;99.90
21906;DHT22;11117;48.644;9.006;2024-02-15T06:23:37;7.30;99.90
21906;DHT22;11117;48.644;9.006;2024-02-15T06:26:03;7.40;99.90
21906;DHT22;11117;48.644;9.006;2024-02-15T06:28:29;7.40;99.90
21906;DHT22;11117;48.644;9.006;2024-02-15T06:30:54;7.40;99.90
21906;DHT22;11117;48.644;9.006;2024-02-15T06:33:20;7.40;99.90
21906;DHT22;11117;48.644;9.006;2024-02-15T06:35:46;7.40;99.90
21906;DHT22;11117;48.644;9.006;2024-02-15T06:38:14;7.40;99.90
21906;DHT22;11117;48.644;9.006;2024-02-15T06:40:39;7.40;99.90
21906;DHT22;11117;48.644;9.006;2024-02-15T06:43:05;7.40;99.90
21906;DHT22;11117;48.644;9.006;2024-02-15T06:45:30;7.30;99.90
21906;DHT22;11117;48.644;9.006;2024-02-15T06:47:56;7.40;99.90
21906;DHT22;11117;48.644;9.006;2024-02-15T06:50:22;7.50;99.90
21906;DHT22;11117;48.644;9.006;2024-02-15T06:52:47;7.60;99.90
21906;DHT22;11117;48.644;9.006;2024-02-15T06:55:13;7.50;99.90
21906;DHT22;11117;48.644;9.006;2024-02-15T06:57:38;7.50;99.90
21906;DHT22;11117;48.644;9.006;2024-02-15T07:00:04;7.50;99.90
21906;DHT22;11117;48.644;9.006;2024-02-15T07:02:30;7.50;99.90
21906;DHT22;11117;48.644;9.006;2024-02-15T07:04:56;7.40;99.90
21906;DHT22;11117;48.644;9.006;2024-02-15T07:07:21;7.50;99.90
21906;DHT22;11117;48.644;9.006;2024-02-15T07:09:47;7.60;99.90
21906;DHT22;11117;48.644;9.006;2024-02-15T07:12:12;7.60;99.90
21906;DHT22;11117;48.644;9.006;2024-02-15T07:14:38;7.60;99.90
21906;DHT22;11117;48.644;9.006;2024-02-15T07:17:03;7.50;99.90
21906;DHT22;11117;48.644;9.006;2024-02-15T07:19:29;7.50;99.90
21906;DHT22;11117;48.644;9.006;2024-02-15T07:21:54;7.50;99.90
21906;DHT22;11117;48.644;9.006;2024-02-15T07:24:20;7.60;99.90
21906;DHT22;11117;48.644;9.006;2024-02-15T07:26:46;7.70;99.90
21906;DHT22;11117;48.644;9.006;2024-02-15T07:29:11;7.80;99.90
21906;DHT22;11117;48.644;9.006;2024-02-15T07:31:37;7.90;99.90
21906;DHT22;11117;48.644;9.006;2024-02-15T07:34:02;8.10;99.90
21906;DHT22;11117;48.644;9.006;2024-02-15T07:36:28;8.30;99.90
21906;DHT22;11117;48.644;9.006;2024-02-15T07:38:54;8.50;99.90
21906;DHT22;11117;48.644;9.006;2024-02-15T07:41:22;8.80;99.90
21906;DHT22;11117;48.644;9.006;2024-02-15T07:43:49;9.00;99.90
21906;DHT22;11117;48.644;9.006;2024-02-15T07:46:15;9.30;99.90
21906;DHT22;11117;48.644;9.006;2024-02-15T07:48:40;9.50;99.90
21906;DHT22;11117;48.644;9.006;2024-02-15T07:51:06;9.70;99.90
21906;DHT22;11117;48.644;9.006;2024-02-15T07:53:32;9.90;99.90
21906;DHT22;11117;48.644;9.006;2024-02-15T07:56:01;10.00;99.90
21906;DHT22;11117;48.644;9.006;2024-02-15T07:58:27;10.20;99.90
21906;DHT22;11117;48.644;9.006;2024-02-15T08:00:52;10.30;99.90
21906;DHT22;11117;48.644;9.006;2024-02-15T08:03:18;10.50;99.90
21906;DHT22;11117;48.644;9.006;2024-02-15T08:05:43;10.60;99.90
21906;DHT22;11117;48.644;9.006;2024-02-15T08:08:09;10.70;99.90
21906;DHT22;11117;48.644;9.006;2024-02-15T08:10:35;10.90;99.90
21906;DHT22;11117;48.644;9.006;2024-02-15T08:13:00;11.10;99.90
21906;DHT22;11117;48.644;9.006;2024-02-15T08:15:26;11.30;99.90
21906;DHT22;11117;48.644;9.006;2024-02-15T08:17:51;11.40;99.90
21906;DHT22;11117;48.644;9.006;2024-02-15T08:20:17;11.50;99.90
21906;DHT22;11117;48.644;9.006;2024-02-15T08:22:43;11.60;99.90
21906;DHT22;11117;48.644;9.006;2024-02-15T08:25:12;11.70;99.90
21906;DHT22;11117;48.644;9.006;2024-02-15T08:27:43;11.80;99.90
21906;DHT22;11117;48.644;9.006;2024-02-15T08:30:13;12.00;99.90
21906;DHT22;11117;48.644;9.006;2024-02-15T08:32:39;12.00;99.90
21906;DHT22;11117;48.644;9.006;2024-02-15T08:35:06;12.10;99.90
21906;DHT22;11117;48.644;9.006;2024-02-15T08:37:32;12.20;99.90
21906;DHT22;11117;48.644;9.006;2024-02-15T08:39:58;12.20;99.90
21906;DHT22;11117;48.644;9.006;2024-02-15T08:42:23;12.30;99.90
21906;DHT22;11117;48.644;9.006;2024-02-15T08:44:49;12.30;99.90
21906;DHT22;11117;48.644;9.006;2024-02-15T08:47:14;12.30;99.90
21906;DHT22;11117;48.644;9.006;2024-02-15T08:49:40;12.40;99.90
21906;DHT22;11117;48.644;9.006;2024-02-15T08:52:06;12.40;99.90
21906;DHT22;11117;48.644;9.006;2024-02-15T08:54:31;12.40;99.90
21906;DHT22;11117;48.644;9.006;2024-02-15T08:56:57;12.50;99.90
21906;DHT22;11117;48.644;9.006;2024-02-15T08:59:22;12.50;99.90
21906;DHT22;11117;48.644;9.006;2024-02-15T09:01:50;12.60;99.90
21906;DHT22;11117;48.644;9.006;2024-02-15T09:04:16;12.70;99.90
21906;DHT22;11117;48.644;9.006;2024-02-15T09:06:41;12.80;99.90
21906;DHT22;11117;48.644;9.006;2024-02-15T09:09:07;12.90;99.90
21906;DHT22;11117;48.644;9.006;2024-02-15T09:11:32;13.00;99.90
21906;DHT22;11117;48.644;9.006;2024-02-15T09:13:58;13.10;99.90
21906;DHT22;11117;48.644;9.006;2024-02-15T09:16:24;13.20;99.90
21906;DHT22;11117;48.644;9.006;2024-02-15T09:18:49;13.10;99.90
21906;DHT22;11117;48.644;9.006;2024-02-15T09:21:15;13.10;99.90
21906;DHT22;11117;48.644;9.006;2024-02-15T09:23:41;13.20;99.90
21906;DHT22;11117;48.644;9.006;2024-02-15T09:26:06;12.90;99.90
21906;DHT22;11117;48.644;9.006;2024-02-15T09:28:32;12.70;99.90
21906;DHT22;11117;48.644;9.006;2024-02-15T09:31:01;12.60;99.90
21906;DHT22;11117;48.644;9.006;2024-02-15T09:33:27;12.60;99.90
21906;DHT22;11117;48.644;9.006;2024-02-15T09:35:53;12.50;99.90
21906;DHT22;11117;48.644;9.006;2024-02-15T09:38:18;12.60;99.90
21906;DHT22;11117;48.644;9.006;2024-02-15T09:40:44;12.60;99.90
21906;DHT22;11117;48.644;9.006;2024-02-15T09:43:10;12.90;99.90
21906;DHT22;11117;48.644;9.006;2024-02-15T09:45:36;12.90;99.90
21906;DHT22;11117;48.644;9.006;2024-02-15T09:48:05;13.20;99.90
21906;DHT22;11117;48.644;9.006;2024-02-15T09:50:31;13.50;99.90
21906;DHT22;11117;48.644;9.006;2024-02-15T09:52:59;13.40;99.90
21906;DHT22;11117;48.644;9.006;2024-02-15T09:55:25;13.30;99.90
21906;DHT22;11117;48.644;9.006;2024-02-15T09:57:51;13.50;99.90
21906;DHT22;11117;48.644;9.006;2024-02-15T10:00:17;13.70;99.90
21906;DHT22;11117;48.644;9.006;2024-02-15T10:02:44;13.70;99.90
21906;DHT22;11117;48.644;9.006;2024-02-15T10:05:10;13.60;99.90
21906;DHT22;11117;48.644;9.006;2024-02-15T10:07:37;13.60;99.90
21906;DHT22;11117;48.644;9.006;2024-02-15T10:10:18;13.80;99.90
21906;DHT22;11117;48.644;9.006;2024-02-15T10:12:44;13.50;99.90
21906;DHT22;11117;48.644;9.006;2024-02-15T10:15:10;13.70;99.90
21906;DHT22;11117;48.644;9.006;2024-02-15T10:17:35;13.90;99.90
21906;DHT22;11117;48.644;9.006;2024-02-15T10:20:05;13.90;99.90
21906;DHT22;11117;48.644;9.006;2024-02-15T10:22:31;14.10;99.90
21906;DHT22;11117;48.644;9.006;2024-02-15T10:25:13;14.40;99.90
21906;DHT22;11117;48.644;9.006;2024-02-15T10:27:42;14.60;99.90
21906;DHT22;11117;48.644;9.006;2024-02-15T10:30:16;14.70;99.90
21906;DHT22;11117;48.644;9.006;2024-02-15T10:32:42;14.60;99.90
21906;DHT22;11117;48.644;9.006;2024-02-15T10:35:08;14.90;99.90
21906;DHT22;11117;48.644;9.006;2024-02-15T10:37:33;15.10;99.90
21906;DHT22;11117;48.644;9.006;2024-02-15T10:40:06;15.30;99.90
21906;DHT22;11117;48.644;9.006;2024-02-15T10:42:32;15.40;99.90
21906;DHT22;11117;48.644;9.006;2024-02-15T10:44:58;15.50;99.90
21906;DHT22;11117;48.644;9.006;2024-02-15T10:47:25;15.50;99.90
21906;DHT22;11117;48.644;9.006;2024-02-15T10:49:51;15.70;99.90
21906;DHT22;11117;48.644;9.006;2024-02-15T10:52:17;15.70;99.90
21906;DHT22;11117;48.644;9.006;2024-02-15T10:54:52;15.70;99.90
21906;DHT22;11117;48.644;9.006;2024-02-15T10:57:22;16.00;99.90
21906;DHT22;11117;48.644;9.006;2024-02-15T10:59:58;16.00;99.90
21906;DHT22;11117;48.644;9.006;2024-02-15T11:02:34;16.30;99.90
21906;DHT22;11117;48.644;9.006;2024-02-15T11:05:06;16.30;99.90
21906;DHT22;11117;48.644;9.006;2024-02-15T11:07:32;16.30;99.90
21906;DHT22;11117;48.644;9.006;2024-02-15T11:09:58;15.90;99.90
21906;DHT22;11117;48.644;9.006;2024-02-15T11:12:25;15.90;99.90
21906;DHT22;11117;48.644;9.006;2024-02-15T11:14:51;15.80;99.90
21906;DHT22;11117;48.644;9.006;2024-02-15T11:20:04;15.80;99.90
21906;DHT22;11117;48.644;9.006;2024-02-15T11:22:29;15.70;99.90
21906;DHT22;11117;48.644;9.006;2024-02-15T11:24:55;15.60;99.90
21906;DHT22;11117;48.644;9.006;2024-02-15T11:27:28;15.90;99.90
21906;DHT22;11117;48.644;9.006;2024-02-15T11:29:58;16.10;99.90
21906;DHT22;11117;48.644;9.006;2024-02-15T11:35:21;16.60;99.90
21906;DHT22;11117;48.644;9.006;2024-02-15T11:42:56;16.30;99.90
21906;DHT22;11117;48.644;9.006;2024-02-15T11:45:22;16.20;99.90
21906;DHT22;11117;48.644;9.006;2024-02-15T11:47:49;16.10;99.90
21906;DHT22;11117;48.644;9.006;2024-02-15T11:50:15;16.20;99.90
21906;DHT22;11117;48.644;9.006;2024-02-15T11:52:41;16.40;99.90
21906;DHT22;11117;48.644;9.006;2024-02-15T11:55:07;16.60;99.90
21906;DHT22;11117;48.644;9.006;2024-02-15T11:57:33;16.80;99.90
21906;DHT22;11117;48.644;9.006;2024-02-15T11:59:59;16.90;99.90
21906;DHT22;11117;48.644;9.006;2024-02-15T12:02:24;17.00;99.90
21906;DHT22;11117;48.644;9.006;2024-02-15T12:04:51;17.10;99.90
21906;DHT22;11117;48.644;9.006;2024-02-15T12:07:17;17.20;99.90
21906;DHT22;11117;48.644;9.006;2024-02-15T12:09:43;17.20;99.90
21906;DHT22;11117;48.644;9.006;2024-02-15T12:12:11;17.10;99.90
21906;DHT22;11117;48.644;9.006;2024-02-15T12:14:37;17.30;99.90
21906;DHT22;11117;48.644;9.006;2024-02-15T12:17:07;17.50;99.90
21906;DHT22;11117;48.644;9.006;2024-02-15T12:19:33;17.60;99.90
21906;DHT22;11117;48.644;9.006;2024-02-15T12:21:59;17.70;99.90
21906;DHT22;11117;48.644;9.006;2024-02-15T12:24:25;17.70;99.90
21906;DHT22;11117;48.644;9.006;2024-02-15T12:26:50;17.60;99.90
21906;DHT22;11117;48.644;9.006;2024-02-15T12:29:17;17.80;99.90
21906;DHT22;11117;48.644;9.006;2024-02-15T12:31:43;18.00;99.90
21906;DHT22;11117;48.644;9.006;2024-02-15T12:34:09;18.00;99.90
21906;DHT22;11117;48.644;9.006;2024-02-15T12:36:35;18.20;99.90
21906;DHT22;11117;48.644;9.006;2024-02-15T12:39:05;18.30;99.90
21906;DHT22;11117;48.644;9.006;2024-02-15T12:41:31;18.40;99.90
21906;DHT22;11117;48.644;9.006;2024-02-15T12:43:56;18.50;99.90
21906;DHT22;11117;48.644;9.006;2024-02-15T12:46:22;18.40;99.90
21906;DHT22;11117;48.644;9.006;2024-02-15T12:48:48;18.40;99.90
21906;DHT22;11117;48.644;9.006;2024-02-15T12:51:14;18.00;99.90
21906;DHT22;11117;48.644;9.006;2024-02-15T12:53:40;17.70;99.90
21906;DHT22;11117;48.644;9.006;2024-02-15T12:56:07;18.00;99.90
21906;DHT22;11117;48.644;9.006;2024-02-15T12:58:33;18.30;99.90
21906;DHT22;11117;48.644;9.006;2024-02-15T13:01:02;18.50;99.90
21906;DHT22;11117;48.644;9.006;2024-02-15T13:03:27;18.80;99.90
21906;DHT22;11117;48.644;9.006;2024-02-15T13:05:53;18.90;99.90
21906;DHT22;11117;48.644;9.006;2024-02-15T13:08:19;18.90;99.90
21906;DHT22;11117;48.644;9.006;2024-02-15T13:10:44;19.00;99.90
21906;DHT22;11117;48.644;9.006;2024-02-15T13:13:10;18.90;99.90
21906;DHT22;11117;48.644;9.006;2024-02-15T13:15:36;19.10;99.90
21906;DHT22;11117;48.644;9.006;2024-02-15T13:18:02;19.20;99.90
21906;DHT22;11117;48.644;9.006;2024-02-15T13:20:28;19.30;99.90
21906;DHT22;11117;48.644;9.006;2024-02-15T13:22:53;19.20;99.90
21906;DHT22;11117;48.644;9.006;2024-02-15T13:25:19;19.00;99.90
21906;DHT22;11117;48.644;9.006;2024-02-15T13:27:45;19.10;99.90
21906;DHT22;11117;48.644;9.006;2024-02-15T13:30:10;19.10;99.90
21906;DHT22;11117;48.644;9.006;2024-02-15T13:32:36;19.20;99.90
21906;DHT22;11117;48.644;9.006;2024-02-15T13:35:04;19.00;99.90
21906;DHT22;11117;48.644;9.006;2024-02-15T13:37:29;19.20;99.90
21906;DHT22;11117;48.644;9.006;2024-02-15T13:39:55;19.10;99.90
21906;DHT22;11117;48.644;9.006;2024-02-15T13:42:20;18.60;99.90
21906;DHT22;11117;48.644;9.006;2024-02-15T13:44:46;18.40;99.90
21906;DHT22;11117;48.644;9.006;2024-02-15T13:47:11;18.30;99.90
21906;DHT22;11117;48.644;9.006;2024-02-15T13:49:38;17.90;99.90
21906;DHT22;11117;48.644;9.006;2024-02-15T13:52:05;17.70;99.90
21906;DHT22;11117;48.644;9.006;2024-02-15T13:54:31;17.60;99.90
21906;DHT22;11117;48.644;9.006;2024-02-15T13:56:56;17.60;99.90
21906;DHT22;11117;48.644;9.006;2024-02-15T13:59:22;17.50;99.90
21906;DHT22;11117;48.644;9.006;2024-02-15T14:01:48;17.40;99.90
21906;DHT22;11117;48.644;9.006;2024-02-15T14:04:13;17.50;99.90
21906;DHT22;11117;48.644;9.006;2024-02-15T14:06:39;17.60;99.90
21906;DHT22;11117;48.644;9.006;2024-02-15T14:09:04;17.80;99.90
21906;DHT22;11117;48.644;9.006;2024-02-15T14:11:30;18.00;99.90
21906;DHT22;11117;48.644;9.006;2024-02-15T14:13:56;18.10;99.90
21906;DHT22;11117;48.644;9.006;2024-02-15T14:16:21;18.10;99.90
21906;DHT22;11117;48.644;9.006;2024-02-15T14:18:47;18.30;99.90
21906;DHT22;11117;48.644;9.006;2024-02-15T14:21:12;18.10;99.90
21906;DHT22;11117;48.644;9.006;2024-02-15T14:23:38;17.90;99.90
21906;DHT22;11117;48.644;9.006;2024-02-15T14:26:04;18.00;99.90
21906;DHT22;11117;48.644;9.006;2024-02-15T14:28:29;18.20;99.90
21906;DHT22;11117;48.644;9.006;2024-02-15T14:30:55;18.30;99.90
21906;DHT22;11117;48.644;9.006;2024-02-15T14:33:20;18.50;99.90
21906;DHT22;11117;48.644;9.006;2024-02-15T14:35:46;18.60;99.90
21906;DHT22;11117;48.644;9.006;2024-02-15T14:38:12;18.60;99.90
21906;DHT22;11117;48.644;9.006;2024-02-15T14:40:40;18.70;99.90
21906;DHT22;11117;48.644;9.006;2024-02-15T14:43:06;18.70;99.90
21906;DHT22;11117;48.644;9.006;2024-02-15T14:45:33;18.70;99.90
21906;DHT22;11117;48.644;9.006;2024-02-15T14:47:59;18.70;99.90
21906;DHT22;11117;48.644;9.006;2024-02-15T14:50:25;18.50;99.90
21906;DHT22;11117;48.644;9.006;2024-02-15T14:52:52;18.50;99.90
21906;DHT22;11117;48.644;9.006;2024-02-15T14:55:17;18.50;99.90
21906;DHT22;11117;48.644;9.006;2024-02-15T14:57:43;18.50;99.90
21906;DHT22;11117;48.644;9.006;2024-02-15T15:00:09;18.50;99.90
21906;DHT22;11117;48.644;9.006;2024-02-15T15:02:34;18.50;99.90
21906;DHT22;11117;48.644;9.006;2024-02-15T15:05:00;18.50;99.90
21906;DHT22;11117;48.644;9.006;2024-02-15T15:07:25;18.50;99.90
21906;DHT22;11117;48.644;9.006;2024-02-15T15:09:51;18.50;99.90
21906;DHT22;11117;48.644;9.006;2024-02-15T15:12:16;18.50;99.90
21906;DHT22;11117;48.644;9.006;2024-02-15T15:14:42;18.40;99.90
21906;DHT22;11117;48.644;9.006;2024-02-15T15:17:07;18.40;99.90
21906;DHT22;11117;48.644;9.006;2024-02-15T15:19:33;18.30;99.90
21906;DHT22;11117;48.644;9.006;2024-02-15T15:21:59;18.30;99.90
21906;DHT22;11117;48.644;9.006;2024-02-15T15:24:24;18.20;99.90
21906;DHT22;11117;48.644;9.006;2024-02-15T15:26:50;18.10;99.90
21906;DHT22;11117;48.644;9.006;2024-02-15T15:29:15;18.00;99.90
21906;DHT22;11117;48.644;9.006;2024-02-15T15:31:41;17.90;99.90
21906;DHT22;11117;48.644;9.006;2024-02-15T15:34:06;17.80;99.90
21906;DHT22;11117;48.644;9.006;2024-02-15T15:36:32;17.80;99.90
21906;DHT22;11117;48.644;9.006;2024-02-15T15:38:57;17.70;99.90
21906;DHT22;11117;48.644;9.006;2024-02-15T15:41:23;17.60;99.90